< < Back
Terminal Aerodrome Forecast


Current Version              Previous Versions:   1  2  3  4  5  6  7  8  9  

Terminal Aerodrome Forecast

315
FTUS42 KMLB 270900 AAA
TAFMCO
TAF AMD
KMCO 270913Z 2709/2806 31006KT P6SM SKC
     FM271600 31013G20KT P6SM FEW035
     FM272300 32008KT P6SM SKC=

Latest METAR

337
SAUS70 KWBC 271300 RRA
MTRMCO
METAR KMCO 271253Z 00000KT 10SM FEW250 10/08 A3028 RMK AO2 SLP253
T01000083


USA.gov is the U.S. government's official web portal to all federal, state and local government web resources and services.